Аэропорт: Минеральные Воды. Минеральные Воды

ICAO: URMM

METAR:
2019/03/26 13:00
URMM 261300Z 11009MPS 9999 NSC 13/M07 Q1012 R12/090070 NOSIG RMK QFE731/0974
METAR:
2019/03/26 12:21
TAF URMM 261058Z 2612/2712 11007G14MPS 9999 NSC TX15/2612Z TNM02/2703Z 
      BECMG 2616/2618 10003G08MPS